Terminal Aerodrome Forecast
Issued by NWS

Home | Current Version | Previous Version | Text Only | Print | Product List | Glossary On
Versions: 1 2 3 4 5 6 7 8 9 10 11 12 13 14 15
426
FTUS44 KCRP 121725
TAFALI
TAF
KALI 121725Z 1218/1318 17010KT P6SM FEW040
     FM130000 14005KT P6SM SKC
     FM130500 15005KT 5SM BR BKN009
      TEMPO 1306/1310 2SM BR
     FM131000 VRB03KT 1SM BR BKN005
      TEMPO 1310/1314 1/2SM FG BKN001
     FM131530 14007KT P6SM SCT040=

USA.gov is the U.S. government's official web portal to all federal, state and local government web resources and services.